sensor_id;sensor_type;location;lat;lon;timestamp;temperature;humidity
70202;DHT22;57724;52.164;5.408;2022-09-17T00:00:46;13.90;88.90
70202;DHT22;57724;52.164;5.408;2022-09-17T00:03:14;15.20;96.10
70202;DHT22;57724;52.164;5.408;2022-09-17T00:05:41;12.70;95.60
70202;DHT22;57724;52.164;5.408;2022-09-17T00:08:13;12.80;95.60
70202;DHT22;57724;52.164;5.408;2022-09-17T00:10:42;13.80;89.20
70202;DHT22;57724;52.164;5.408;2022-09-17T00:13:09;12.60;95.70
70202;DHT22;57724;52.164;5.408;2022-09-17T00:15:44;15.20;96.50
70202;DHT22;57724;52.164;5.408;2022-09-17T00:18:12;15.20;96.50
70202;DHT22;57724;52.164;5.408;2022-09-17T00:20:41;13.80;96.20
70202;DHT22;57724;52.164;5.408;2022-09-17T00:23:08;12.70;95.90
70202;DHT22;57724;52.164;5.408;2022-09-17T00:25:42;14.50;95.40
70202;DHT22;57724;52.164;5.408;2022-09-17T00:28:11;14.80;94.30
70202;DHT22;57724;52.164;5.408;2022-09-17T00:30:42;13.70;96.20
70202;DHT22;57724;52.164;5.408;2022-09-17T00:33:14;12.60;89.30
70202;DHT22;57724;52.164;5.408;2022-09-17T00:35:42;12.60;93.70
70202;DHT22;57724;52.164;5.408;2022-09-17T00:38:10;14.80;96.50
70202;DHT22;57724;52.164;5.408;2022-09-17T00:40:37;12.60;95.90
70202;DHT22;57724;52.164;5.408;2022-09-17T00:43:09;13.80;92.60
70202;DHT22;57724;52.164;5.408;2022-09-17T00:48:05;12.90;96.00
70202;DHT22;57724;52.164;5.408;2022-09-17T00:50:35;12.70;94.80
70202;DHT22;57724;52.164;5.408;2022-09-17T00:53:11;12.70;90.60
70202;DHT22;57724;52.164;5.408;2022-09-17T00:55:42;13.30;94.20
70202;DHT22;57724;52.164;5.408;2022-09-17T00:58:12;12.70;95.90
70202;DHT22;57724;52.164;5.408;2022-09-17T01:03:08;13.10;96.00
70202;DHT22;57724;52.164;5.408;2022-09-17T01:08:24;14.90;96.30
70202;DHT22;57724;52.164;5.408;2022-09-17T01:11:09;13.50;87.50
70202;DHT22;57724;52.164;5.408;2022-09-17T01:14:02;13.00;95.90
70202;DHT22;57724;52.164;5.408;2022-09-17T01:16:47;13.50;89.50
70202;DHT22;57724;52.164;5.408;2022-09-17T01:19:31;12.70;89.40
70202;DHT22;57724;52.164;5.408;2022-09-17T01:22:12;13.40;87.90
70202;DHT22;57724;52.164;5.408;2022-09-17T01:25:21;12.60;96.00
70202;DHT22;57724;52.164;5.408;2022-09-17T01:30:59;13.30;87.70
70202;DHT22;57724;52.164;5.408;2022-09-17T01:34:04;12.50;95.90
70202;DHT22;57724;52.164;5.408;2022-09-17T01:42:08;14.80;96.20
70202;DHT22;57724;52.164;5.408;2022-09-17T01:44:52;14.30;95.90
70202;DHT22;57724;52.164;5.408;2022-09-17T01:47:40;14.80;96.00
70202;DHT22;57724;52.164;5.408;2022-09-17T01:50:18;12.20;95.30
70202;DHT22;57724;52.164;5.408;2022-09-17T01:52:48;14.80;95.70
70202;DHT22;57724;52.164;5.408;2022-09-17T01:55:16;14.90;95.70
70202;DHT22;57724;52.164;5.408;2022-09-17T01:57:53;12.40;95.00
70202;DHT22;57724;52.164;5.408;2022-09-17T02:00:21;12.80;92.10
70202;DHT22;57724;52.164;5.408;2022-09-17T02:02:54;14.60;95.30
70202;DHT22;57724;52.164;5.408;2022-09-17T02:05:33;14.00;90.80
70202;DHT22;57724;52.164;5.408;2022-09-17T02:11:01;13.70;84.60
70202;DHT22;57724;52.164;5.408;2022-09-17T02:13:42;15.10;95.20
70202;DHT22;57724;52.164;5.408;2022-09-17T02:16:15;12.50;91.50
70202;DHT22;57724;52.164;5.408;2022-09-17T02:18:49;14.30;94.90
70202;DHT22;57724;52.164;5.408;2022-09-17T02:27:00;14.40;93.20
70202;DHT22;57724;52.164;5.408;2022-09-17T02:34:28;14.40;95.00
70202;DHT22;57724;52.164;5.408;2022-09-17T02:36:56;13.50;91.00
70202;DHT22;57724;52.164;5.408;2022-09-17T02:39:25;12.40;94.60
70202;DHT22;57724;52.164;5.408;2022-09-17T02:59:14;13.00;95.10
70202;DHT22;57724;52.164;5.408;2022-09-17T03:01:58;14.40;95.50
70202;DHT22;57724;52.164;5.408;2022-09-17T03:04:27;13.30;95.30
70202;DHT22;57724;52.164;5.408;2022-09-17T03:06:55;14.10;95.60
70202;DHT22;57724;52.164;5.408;2022-09-17T03:09:24;11.90;94.50
70202;DHT22;57724;52.164;5.408;2022-09-17T03:11:51;12.90;95.40
70202;DHT22;57724;52.164;5.408;2022-09-17T03:16:46;14.00;95.80
70202;DHT22;57724;52.164;5.408;2022-09-17T03:19:13;14.20;95.80
70202;DHT22;57724;52.164;5.408;2022-09-17T03:21:40;13.70;95.70
70202;DHT22;57724;52.164;5.408;2022-09-17T03:24:06;11.90;95.40
70202;DHT22;57724;52.164;5.408;2022-09-17T03:26:33;12.60;95.70
70202;DHT22;57724;52.164;5.408;2022-09-17T03:29:00;12.50;95.90
70202;DHT22;57724;52.164;5.408;2022-09-17T03:31:27;13.10;96.10
70202;DHT22;57724;52.164;5.408;2022-09-17T03:33:54;13.90;95.00
70202;DHT22;57724;52.164;5.408;2022-09-17T03:38:52;12.20;95.90
70202;DHT22;57724;52.164;5.408;2022-09-17T03:41:21;14.10;96.40
70202;DHT22;57724;52.164;5.408;2022-09-17T03:43:48;13.00;90.80
70202;DHT22;57724;52.164;5.408;2022-09-17T03:46:15;11.60;96.00
70202;DHT22;57724;52.164;5.408;2022-09-17T03:51:09;13.30;96.40
70202;DHT22;57724;52.164;5.408;2022-09-17T03:56:05;14.10;96.70
70202;DHT22;57724;52.164;5.408;2022-09-17T03:58:32;12.70;96.40
70202;DHT22;57724;52.164;5.408;2022-09-17T04:00:59;11.50;96.20
70202;DHT22;57724;52.164;5.408;2022-09-17T04:03:27;12.80;96.50
70202;DHT22;57724;52.164;5.408;2022-09-17T04:08:21;14.10;91.30
70202;DHT22;57724;52.164;5.408;2022-09-17T04:10:48;12.60;96.60
70202;DHT22;57724;52.164;5.408;2022-09-17T04:13:15;13.00;89.50
70202;DHT22;57724;52.164;5.408;2022-09-17T04:20:36;13.60;96.40
70202;DHT22;57724;52.164;5.408;2022-09-17T04:25:33;13.20;96.20
70202;DHT22;57724;52.164;5.408;2022-09-17T04:28:00;12.30;95.80
70202;DHT22;57724;52.164;5.408;2022-09-17T04:35:21;12.10;95.70
70202;DHT22;57724;52.164;5.408;2022-09-17T04:37:55;12.50;95.90
70202;DHT22;57724;52.164;5.408;2022-09-17T04:40:22;11.80;95.70
70202;DHT22;57724;52.164;5.408;2022-09-17T04:42:56;14.30;96.30
70202;DHT22;57724;52.164;5.408;2022-09-17T04:45:25;14.20;94.60
70202;DHT22;57724;52.164;5.408;2022-09-17T04:47:51;12.00;95.80
70202;DHT22;57724;52.164;5.408;2022-09-17T04:52:46;11.50;95.90
70202;DHT22;57724;52.164;5.408;2022-09-17T04:55:14;14.10;95.60
70202;DHT22;57724;52.164;5.408;2022-09-17T04:57:49;11.60;92.40
70202;DHT22;57724;52.164;5.408;2022-09-17T05:00:17;12.60;89.80
70202;DHT22;57724;52.164;5.408;2022-09-17T05:02:48;12.70;96.30
70202;DHT22;57724;52.164;5.408;2022-09-17T05:05:16;12.70;89.70
70202;DHT22;57724;52.164;5.408;2022-09-17T05:07:43;11.70;96.00
70202;DHT22;57724;52.164;5.408;2022-09-17T05:10:11;12.50;90.00
70202;DHT22;57724;52.164;5.408;2022-09-17T05:12:38;11.90;96.20
70202;DHT22;57724;52.164;5.408;2022-09-17T05:15:05;11.50;96.10
70202;DHT22;57724;52.164;5.408;2022-09-17T05:24:53;13.20;96.50
70202;DHT22;57724;52.164;5.408;2022-09-17T05:27:20;13.90;96.40
70202;DHT22;57724;52.164;5.408;2022-09-17T05:32:14;11.40;95.50
70202;DHT22;57724;52.164;5.408;2022-09-17T05:37:10;13.00;89.00
70202;DHT22;57724;52.164;5.408;2022-09-17T05:39:37;11.90;89.70
70202;DHT22;57724;52.164;5.408;2022-09-17T05:42:04;13.90;95.90
70202;DHT22;57724;52.164;5.408;2022-09-17T05:44:30;13.90;95.90
70202;DHT22;57724;52.164;5.408;2022-09-17T05:49:24;13.00;95.70
70202;DHT22;57724;52.164;5.408;2022-09-17T05:54:18;12.80;95.60
70202;DHT22;57724;52.164;5.408;2022-09-17T05:56:45;11.90;95.30
70202;DHT22;57724;52.164;5.408;2022-09-17T06:04:08;12.70;89.50
70202;DHT22;57724;52.164;5.408;2022-09-17T06:09:04;15.40;95.00
70202;DHT22;57724;52.164;5.408;2022-09-17T06:11:30;15.70;94.80
70202;DHT22;57724;52.164;5.408;2022-09-17T06:13:57;16.00;94.50
70202;DHT22;57724;52.164;5.408;2022-09-17T06:18:51;16.80;94.50
70202;DHT22;57724;52.164;5.408;2022-09-17T06:21:19;16.20;84.20
70202;DHT22;57724;52.164;5.408;2022-09-17T06:23:48;18.20;93.60
70202;DHT22;57724;52.164;5.408;2022-09-17T06:28:42;17.00;92.60
70202;DHT22;57724;52.164;5.408;2022-09-17T06:31:11;16.30;79.60
70202;DHT22;57724;52.164;5.408;2022-09-17T06:33:38;18.20;86.30
70202;DHT22;57724;52.164;5.408;2022-09-17T06:36:09;20.30;91.00
70202;DHT22;57724;52.164;5.408;2022-09-17T06:38:40;19.40;89.00
70202;DHT22;57724;52.164;5.408;2022-09-17T06:41:07;22.10;89.00
70202;DHT22;57724;52.164;5.408;2022-09-17T06:46:03;23.30;85.10
70202;DHT22;57724;52.164;5.408;2022-09-17T06:48:36;22.30;82.30
70202;DHT22;57724;52.164;5.408;2022-09-17T06:51:07;24.20;81.90
70202;DHT22;57724;52.164;5.408;2022-09-17T06:53:36;24.10;79.00
70202;DHT22;57724;52.164;5.408;2022-09-17T06:56:04;23.60;76.90
70202;DHT22;57724;52.164;5.408;2022-09-17T06:58:33;24.40;63.70
70202;DHT22;57724;52.164;5.408;2022-09-17T07:01:00;25.10;75.10
70202;DHT22;57724;52.164;5.408;2022-09-17T07:03:28;24.80;61.80
70202;DHT22;57724;52.164;5.408;2022-09-17T07:05:56;25.80;59.20
70202;DHT22;57724;52.164;5.408;2022-09-17T07:08:24;25.10;71.60
70202;DHT22;57724;52.164;5.408;2022-09-17T07:10:55;24.50;71.80
70202;DHT22;57724;52.164;5.408;2022-09-17T07:13:22;24.00;54.70
70202;DHT22;57724;52.164;5.408;2022-09-17T07:15:57;24.40;71.80
